Time;durP1;ratioP1;P1;durP2;ratioP2;P2;SDS_P1;SDS_P2;PMS_P1;PMS_P2;Temp;Humidity;BMP_temperature;BMP_pressure;BME280_temperature;BME280_humidity;BME280_pressure;Samples;Min_cycle;Max_cycle;Signal;HPM_P1;HPM_P2
2021/09/01 00:14:31;;;;;;;13.37;5.90;;;;;;;12.62;93.89;100857.23;21192191;81;99590;-84
2021/09/01 00:44:32;;;;;;;11.63;5.90;;;;;;;12.53;95.75;100877.45;21224706;81;99699;-85
2021/09/01 01:14:50;;;;;;;11.63;5.13;;;;;;;12.36;96.62;100876.67;21203211;81;99939;-85
2021/09/01 01:44:50;;;;;;;11.03;5.03;;;;;;;12.19;97.78;100862.67;20497546;83;99405;-86
2021/09/01 02:14:51;;;;;;;10.03;5.00;;;;;;;12.16;98.51;100877.24;21296064;81;99687;-86
2021/09/01 02:44:52;;;;;;;10.90;5.07;;;;;;;12.08;99.41;100903.95;21277843;81;123023;-84
2021/09/01 03:14:53;;;;;;;12.37;5.40;;;;;;;11.98;100.00;100910.12;21286086;81;99739;-85
2021/09/01 03:44:53;;;;;;;11.63;5.83;;;;;;;11.90;100.00;100911.78;21262335;81;100203;-85
2021/09/01 04:14:54;;;;;;;14.53;6.08;;;;;;;11.79;100.00;100943.94;21303162;81;99889;-85
2021/09/01 04:44:55;;;;;;;11.03;5.10;;;;;;;11.66;100.00;100972.91;21294699;81;99993;-87
2021/09/01 05:14:57;;;;;;;15.90;7.23;;;;;;;11.62;100.00;100996.27;21325168;81;99889;-86
2021/09/01 05:44:59;;;;;;;14.10;6.53;;;;;;;11.73;100.00;101034.45;21354151;81;99937;-86
2021/09/01 06:15:00;;;;;;;16.13;6.30;;;;;;;12.10;100.00;101045.08;21346276;81;99689;-85
2021/09/01 06:45:01;;;;;;;14.20;6.47;;;;;;;13.28;100.00;101042.81;21343353;81;99745;-84
2021/09/01 07:15:08;;;;;;;10.30;5.00;;;;;;;14.07;100.00;101054.95;21276717;81;99657;-86
2021/09/01 07:45:08;;;;;;;12.93;4.67;;;;;;;14.94;100.00;101069.89;21340431;80;2620157;-84
2021/09/01 08:15:11;;;;;;;10.60;4.20;;;;;;;16.44;96.07;101099.20;21468326;80;100045;-84
2021/09/01 08:45:13;;;;;;;7.33;3.00;;;;;;;17.37;88.43;101120.09;21364920;80;100033;-84
2021/09/01 09:15:14;;;;;;;7.42;3.05;;;;;;;18.98;82.61;101136.85;21119734;81;2107278;-84
2021/09/01 09:45:25;;;;;;;8.65;2.87;;;;;;;21.58;76.93;101153.59;21195942;81;203413;-80
2021/09/01 10:15:30;;;;;;;5.78;2.83;;;;;;;22.49;73.75;101164.05;21368107;81;99498;-84
2021/09/01 10:45:37;;;;;;;7.87;2.50;;;;;;;24.30;66.05;101152.05;21359067;81;99531;-83
2021/09/01 11:29:17;;;;;;;9.88;3.42;;;;;;;25.38;55.24;101182.58;21650683;78;2213324;-82
2021/09/01 11:59:19;;;;;;;9.30;2.27;;;;;;;25.73;54.87;101184.83;21146380;80;99730;-81
2021/09/01 12:29:27;;;;;;;6.00;2.60;;;;;;;25.29;53.29;101191.00;21091283;81;2712552;-80
2021/09/01 12:59:31;;;;;;;6.47;2.50;;;;;;;24.47;55.38;101198.50;21345523;81;100239;-80
2021/09/01 13:29:30;;;;;;;6.00;2.60;;;;;;;24.05;57.99;101197.08;21215477;81;99564;-85
2021/09/01 13:59:32;;;;;;;13.70;3.95;;;;;;;23.94;57.46;101200.84;21181598;81;99395;-83
2021/09/01 14:29:32;;;;;;;6.47;2.40;;;;;;;23.39;57.87;101183.03;21319424;81;99463;-81
2021/09/01 14:59:33;;;;;;;6.47;2.98;;;;;;;22.46;58.92;101173.33;21341499;81;99337;-81
2021/09/01 15:29:34;;;;;;;5.50;2.20;;;;;;;22.09;60.62;101151.42;21344596;81;99335;-81
2021/09/01 15:59:40;;;;;;;5.58;1.92;;;;;;;21.46;60.47;101105.25;21284072;81;99293;-80
2021/09/01 16:29:42;;;;;;;5.97;2.00;;;;;;;21.17;61.11;101124.50;21302093;81;99242;-81
2021/09/01 16:59:57;;;;;;;3.83;2.05;;;;;;;20.66;61.19;101119.52;21342237;81;99525;-82
2021/09/01 17:30:08;;;;;;;5.28;2.37;;;;;;;20.14;62.59;101125.44;21315994;81;99293;-81
2021/09/01 18:00:12;;;;;;;6.87;2.93;;;;;;;18.12;66.88;101171.31;21325428;81;99256;-80
2021/09/01 18:30:13;;;;;;;5.43;2.43;;;;;;;18.12;66.88;101171.31;21334763;81;99415;-82
2021/09/01 19:00:15;;;;;;;6.78;2.75;;;;;;;17.16;69.27;101188.34;21326891;81;99492;-83
2021/09/01 19:30:18;;;;;;;8.33;3.58;;;;;;;16.30;71.83;101208.13;21296009;81;99183;-82
2021/09/01 20:00:19;;;;;;;5.67;2.43;;;;;;;15.46;74.96;101212.11;21318865;80;99798;-82
2021/09/01 20:30:20;;;;;;;6.03;2.83;;;;;;;14.16;80.12;101221.49;21563478;80;100025;-82
2021/09/01 21:00:21;;;;;;;;;;;;;;;14.16;80.12;101221.49;21602615;80;99468;-81
2021/09/01 21:30:26;;;;;;;8.50;3.10;;;;;;;13.93;82.55;101261.01;21598039;80;85685;-83
2021/09/01 22:00:27;;;;;;;8.17;3.30;;;;;;;13.71;81.99;101257.80;21589109;80;99658;-83
2021/09/01 22:30:28;;;;;;;7.40;3.03;;;;;;;13.41;83.89;101274.42;21628147;80;99267;-83
2021/09/01 23:00:29;;;;;;;8.50;3.67;;;;;;;13.03;85.14;101294.02;21580638;80;99467;-82
2021/09/01 23:30:30;;;;;;;9.53;4.20;;;;;;;12.81;86.38;101304.51;21620108;80;99628;-83
